sensor_id;sensor_type;location;lat;lon;timestamp;P1;durP1;ratioP1;P2;durP2;ratioP2
30677;SDS011;17437;47.188;8.896;2023-02-15T00:02:12;50.78;;;29.40;;
30677;SDS011;17437;47.188;8.896;2023-02-15T00:04:44;64.58;;;33.55;;
30677;SDS011;17437;47.188;8.896;2023-02-15T00:07:16;56.77;;;30.68;;
30677;SDS011;17437;47.188;8.896;2023-02-15T00:09:55;61.10;;;31.20;;
30677;SDS011;17437;47.188;8.896;2023-02-15T00:12:40;57.00;;;30.72;;
30677;SDS011;17437;47.188;8.896;2023-02-15T00:15:11;57.88;;;31.40;;
30677;SDS011;17437;47.188;8.896;2023-02-15T00:17:43;63.48;;;33.50;;
30677;SDS011;17437;47.188;8.896;2023-02-15T00:20:15;54.23;;;32.98;;
30677;SDS011;17437;47.188;8.896;2023-02-15T00:22:47;60.60;;;33.53;;
30677;SDS011;17437;47.188;8.896;2023-02-15T00:25:18;71.12;;;35.98;;
30677;SDS011;17437;47.188;8.896;2023-02-15T00:27:50;69.25;;;35.10;;
30677;SDS011;17437;47.188;8.896;2023-02-15T00:30:21;54.98;;;32.00;;
30677;SDS011;17437;47.188;8.896;2023-02-15T00:32:53;60.20;;;33.92;;
30677;SDS011;17437;47.188;8.896;2023-02-15T00:35:25;61.13;;;31.27;;
30677;SDS011;17437;47.188;8.896;2023-02-15T00:37:56;56.15;;;30.80;;
30677;SDS011;17437;47.188;8.896;2023-02-15T00:40:28;62.58;;;28.07;;
30677;SDS011;17437;47.188;8.896;2023-02-15T00:42:59;54.13;;;27.62;;
30677;SDS011;17437;47.188;8.896;2023-02-15T00:45:31;49.77;;;26.70;;
30677;SDS011;17437;47.188;8.896;2023-02-15T00:48:02;49.35;;;26.90;;
30677;SDS011;17437;47.188;8.896;2023-02-15T00:50:34;53.17;;;27.42;;
30677;SDS011;17437;47.188;8.896;2023-02-15T00:53:05;56.73;;;29.85;;
30677;SDS011;17437;47.188;8.896;2023-02-15T00:55:37;77.78;;;37.40;;
30677;SDS011;17437;47.188;8.896;2023-02-15T00:58:09;79.80;;;40.03;;
30677;SDS011;17437;47.188;8.896;2023-02-15T01:00:43;73.47;;;33.88;;
30677;SDS011;17437;47.188;8.896;2023-02-15T01:03:16;67.53;;;32.03;;
30677;SDS011;17437;47.188;8.896;2023-02-15T01:05:48;67.53;;;36.98;;
30677;SDS011;17437;47.188;8.896;2023-02-15T01:08:20;62.95;;;32.88;;
30677;SDS011;17437;47.188;8.896;2023-02-15T01:10:51;64.65;;;32.20;;
30677;SDS011;17437;47.188;8.896;2023-02-15T01:13:23;51.77;;;30.27;;
30677;SDS011;17437;47.188;8.896;2023-02-15T01:15:54;57.43;;;31.35;;
30677;SDS011;17437;47.188;8.896;2023-02-15T01:18:27;53.45;;;29.95;;
30677;SDS011;17437;47.188;8.896;2023-02-15T01:20:58;56.30;;;30.72;;
30677;SDS011;17437;47.188;8.896;2023-02-15T01:23:33;51.88;;;27.95;;
30677;SDS011;17437;47.188;8.896;2023-02-15T01:26:04;53.23;;;34.00;;
30677;SDS011;17437;47.188;8.896;2023-02-15T01:28:36;57.20;;;31.97;;
30677;SDS011;17437;47.188;8.896;2023-02-15T01:31:08;51.68;;;27.67;;
30677;SDS011;17437;47.188;8.896;2023-02-15T01:33:40;51.75;;;29.30;;
30677;SDS011;17437;47.188;8.896;2023-02-15T01:36:12;48.35;;;27.07;;
30677;SDS011;17437;47.188;8.896;2023-02-15T01:38:46;52.13;;;29.05;;
30677;SDS011;17437;47.188;8.896;2023-02-15T01:41:18;57.65;;;28.92;;
30677;SDS011;17437;47.188;8.896;2023-02-15T01:43:52;70.72;;;31.02;;
30677;SDS011;17437;47.188;8.896;2023-02-15T01:46:28;45.38;;;27.60;;
30677;SDS011;17437;47.188;8.896;2023-02-15T01:49:03;54.48;;;27.65;;
30677;SDS011;17437;47.188;8.896;2023-02-15T01:51:38;46.73;;;26.62;;
30677;SDS011;17437;47.188;8.896;2023-02-15T01:54:13;86.70;;;30.52;;
30677;SDS011;17437;47.188;8.896;2023-02-15T01:56:46;52.33;;;29.80;;
30677;SDS011;17437;47.188;8.896;2023-02-15T01:59:19;77.08;;;32.23;;
30677;SDS011;17437;47.188;8.896;2023-02-15T02:01:53;69.97;;;31.30;;
30677;SDS011;17437;47.188;8.896;2023-02-15T02:04:38;55.75;;;31.37;;
30677;SDS011;17437;47.188;8.896;2023-02-15T02:07:11;54.33;;;29.07;;
30677;SDS011;17437;47.188;8.896;2023-02-15T02:09:45;67.30;;;32.90;;
30677;SDS011;17437;47.188;8.896;2023-02-15T02:12:19;48.33;;;27.90;;
30677;SDS011;17437;47.188;8.896;2023-02-15T02:14:52;47.70;;;27.80;;
30677;SDS011;17437;47.188;8.896;2023-02-15T02:17:30;52.62;;;31.17;;
30677;SDS011;17437;47.188;8.896;2023-02-15T02:20:15;68.25;;;33.50;;
30677;SDS011;17437;47.188;8.896;2023-02-15T02:32:04;74.50;;;33.05;;
30677;SDS011;17437;47.188;8.896;2023-02-15T02:34:55;62.88;;;31.00;;
30677;SDS011;17437;47.188;8.896;2023-02-15T02:37:30;134.37;;;37.55;;
30677;SDS011;17437;47.188;8.896;2023-02-15T02:40:06;52.27;;;28.32;;
30677;SDS011;17437;47.188;8.896;2023-02-15T02:42:40;71.82;;;34.27;;
30677;SDS011;17437;47.188;8.896;2023-02-15T02:45:15;61.63;;;31.87;;
30677;SDS011;17437;47.188;8.896;2023-02-15T02:47:49;55.78;;;30.52;;
30677;SDS011;17437;47.188;8.896;2023-02-15T02:50:38;129.65;;;32.00;;
30677;SDS011;17437;47.188;8.896;2023-02-15T02:53:09;50.75;;;29.23;;
30677;SDS011;17437;47.188;8.896;2023-02-15T02:55:42;53.38;;;29.67;;
30677;SDS011;17437;47.188;8.896;2023-02-15T02:58:17;48.10;;;26.30;;
30677;SDS011;17437;47.188;8.896;2023-02-15T03:00:52;49.95;;;28.52;;
30677;SDS011;17437;47.188;8.896;2023-02-15T03:03:39;50.70;;;27.98;;
30677;SDS011;17437;47.188;8.896;2023-02-15T03:06:14;47.90;;;30.23;;
30677;SDS011;17437;47.188;8.896;2023-02-15T03:08:48;53.08;;;30.00;;
30677;SDS011;17437;47.188;8.896;2023-02-15T03:11:22;40.33;;;26.30;;
30677;SDS011;17437;47.188;8.896;2023-02-15T03:13:53;48.92;;;24.77;;
30677;SDS011;17437;47.188;8.896;2023-02-15T03:16:25;81.70;;;28.90;;
30677;SDS011;17437;47.188;8.896;2023-02-15T03:18:58;65.10;;;28.10;;
30677;SDS011;17437;47.188;8.896;2023-02-15T03:21:33;151.85;;;32.10;;
30677;SDS011;17437;47.188;8.896;2023-02-15T03:24:08;115.60;;;31.02;;
30677;SDS011;17437;47.188;8.896;2023-02-15T03:26:45;42.95;;;24.77;;
30677;SDS011;17437;47.188;8.896;2023-02-15T03:29:20;89.40;;;29.63;;
30677;SDS011;17437;47.188;8.896;2023-02-15T03:31:54;184.40;;;34.20;;
30677;SDS011;17437;47.188;8.896;2023-02-15T03:34:28;45.28;;;27.20;;
30677;SDS011;17437;47.188;8.896;2023-02-15T03:37:03;153.05;;;38.45;;
30677;SDS011;17437;47.188;8.896;2023-02-15T03:39:37;123.40;;;33.90;;
30677;SDS011;17437;47.188;8.896;2023-02-15T03:42:11;169.22;;;41.13;;
30677;SDS011;17437;47.188;8.896;2023-02-15T03:44:48;109.05;;;35.83;;
30677;SDS011;17437;47.188;8.896;2023-02-15T03:47:23;50.98;;;27.25;;
30677;SDS011;17437;47.188;8.896;2023-02-15T03:49:59;60.08;;;29.67;;
30677;SDS011;17437;47.188;8.896;2023-02-15T03:52:33;145.12;;;37.58;;
30677;SDS011;17437;47.188;8.896;2023-02-15T03:55:06;154.60;;;35.20;;
30677;SDS011;17437;47.188;8.896;2023-02-15T03:57:37;50.03;;;26.82;;
30677;SDS011;17437;47.188;8.896;2023-02-15T04:00:27;100.47;;;31.35;;
30677;SDS011;17437;47.188;8.896;2023-02-15T04:03:20;103.95;;;32.42;;
30677;SDS011;17437;47.188;8.896;2023-02-15T04:05:54;137.35;;;35.52;;
30677;SDS011;17437;47.188;8.896;2023-02-15T04:08:26;145.95;;;36.38;;
30677;SDS011;17437;47.188;8.896;2023-02-15T04:11:16;158.33;;;37.80;;
30677;SDS011;17437;47.188;8.896;2023-02-15T04:13:47;145.47;;;38.67;;
30677;SDS011;17437;47.188;8.896;2023-02-15T04:16:21;145.75;;;35.38;;
30677;SDS011;17437;47.188;8.896;2023-02-15T04:18:53;120.08;;;31.90;;
30677;SDS011;17437;47.188;8.896;2023-02-15T04:21:42;140.43;;;34.58;;
30677;SDS011;17437;47.188;8.896;2023-02-15T04:24:31;147.47;;;40.80;;
30677;SDS011;17437;47.188;8.896;2023-02-15T04:27:20;134.15;;;37.25;;
30677;SDS011;17437;47.188;8.896;2023-02-15T04:29:52;49.88;;;28.25;;
30677;SDS011;17437;47.188;8.896;2023-02-15T04:32:23;53.00;;;29.23;;
30677;SDS011;17437;47.188;8.896;2023-02-15T04:34:56;45.17;;;25.05;;
30677;SDS011;17437;47.188;8.896;2023-02-15T04:37:28;46.50;;;26.52;;
30677;SDS011;17437;47.188;8.896;2023-02-15T04:39:59;42.17;;;26.70;;
30677;SDS011;17437;47.188;8.896;2023-02-15T04:42:31;54.38;;;26.73;;
30677;SDS011;17437;47.188;8.896;2023-02-15T04:45:03;139.65;;;32.58;;
30677;SDS011;17437;47.188;8.896;2023-02-15T04:47:36;116.62;;;30.72;;
30677;SDS011;17437;47.188;8.896;2023-02-15T04:50:08;115.25;;;32.00;;
30677;SDS011;17437;47.188;8.896;2023-02-15T04:52:40;146.50;;;32.63;;
30677;SDS011;17437;47.188;8.896;2023-02-15T04:55:11;83.00;;;31.25;;
30677;SDS011;17437;47.188;8.896;2023-02-15T04:57:43;83.58;;;30.80;;
30677;SDS011;17437;47.188;8.896;2023-02-15T05:00:16;110.25;;;34.08;;
30677;SDS011;17437;47.188;8.896;2023-02-15T05:02:48;141.85;;;39.73;;
30677;SDS011;17437;47.188;8.896;2023-02-15T05:05:19;113.60;;;34.67;;
30677;SDS011;17437;47.188;8.896;2023-02-15T05:07:51;167.22;;;37.67;;
30677;SDS011;17437;47.188;8.896;2023-02-15T05:10:22;122.45;;;32.93;;
30677;SDS011;17437;47.188;8.896;2023-02-15T05:12:54;128.30;;;35.68;;
30677;SDS011;17437;47.188;8.896;2023-02-15T05:15:25;103.42;;;33.38;;
30677;SDS011;17437;47.188;8.896;2023-02-15T05:17:57;132.27;;;37.63;;
30677;SDS011;17437;47.188;8.896;2023-02-15T05:20:28;107.83;;;33.33;;
30677;SDS011;17437;47.188;8.896;2023-02-15T05:23:00;73.97;;;29.32;;
30677;SDS011;17437;47.188;8.896;2023-02-15T05:25:31;115.82;;;31.33;;
30677;SDS011;17437;47.188;8.896;2023-02-15T05:28:21;129.72;;;35.68;;
30677;SDS011;17437;47.188;8.896;2023-02-15T05:30:58;110.10;;;32.85;;
30677;SDS011;17437;47.188;8.896;2023-02-15T05:33:33;133.43;;;34.13;;
30677;SDS011;17437;47.188;8.896;2023-02-15T05:36:05;69.60;;;30.75;;
30677;SDS011;17437;47.188;8.896;2023-02-15T05:38:37;47.58;;;28.32;;
30677;SDS011;17437;47.188;8.896;2023-02-15T05:41:09;40.05;;;23.32;;
30677;SDS011;17437;47.188;8.896;2023-02-15T05:43:41;67.82;;;28.47;;
30677;SDS011;17437;47.188;8.896;2023-02-15T05:46:13;40.38;;;25.80;;
30677;SDS011;17437;47.188;8.896;2023-02-15T05:48:44;105.65;;;29.55;;
30677;SDS011;17437;47.188;8.896;2023-02-15T05:51:17;37.48;;;23.12;;
30677;SDS011;17437;47.188;8.896;2023-02-15T05:53:50;38.83;;;23.73;;
30677;SDS011;17437;47.188;8.896;2023-02-15T05:56:21;128.05;;;29.05;;
30677;SDS011;17437;47.188;8.896;2023-02-15T05:58:53;44.20;;;23.15;;
30677;SDS011;17437;47.188;8.896;2023-02-15T06:01:24;61.80;;;25.30;;
30677;SDS011;17437;47.188;8.896;2023-02-15T06:06:25;40.70;;;22.17;;
30677;SDS011;17437;47.188;8.896;2023-02-15T06:08:57;80.72;;;26.50;;
30677;SDS011;17437;47.188;8.896;2023-02-15T06:11:28;98.80;;;27.62;;
30677;SDS011;17437;47.188;8.896;2023-02-15T06:14:00;90.32;;;29.70;;
30677;SDS011;17437;47.188;8.896;2023-02-15T06:16:31;93.55;;;30.72;;
30677;SDS011;17437;47.188;8.896;2023-02-15T06:19:03;140.82;;;31.02;;
30677;SDS011;17437;47.188;8.896;2023-02-15T06:21:34;128.12;;;30.17;;
30677;SDS011;17437;47.188;8.896;2023-02-15T06:24:07;142.57;;;36.03;;
30677;SDS011;17437;47.188;8.896;2023-02-15T06:26:39;58.40;;;26.12;;
30677;SDS011;17437;47.188;8.896;2023-02-15T06:29:10;111.83;;;32.15;;
30677;SDS011;17437;47.188;8.896;2023-02-15T06:31:42;50.50;;;27.82;;
30677;SDS011;17437;47.188;8.896;2023-02-15T06:34:14;49.65;;;26.68;;
30677;SDS011;17437;47.188;8.896;2023-02-15T06:36:45;48.40;;;25.55;;
30677;SDS011;17437;47.188;8.896;2023-02-15T06:39:17;38.88;;;24.00;;
30677;SDS011;17437;47.188;8.896;2023-02-15T06:41:48;43.50;;;23.57;;
30677;SDS011;17437;47.188;8.896;2023-02-15T06:44:20;66.87;;;26.07;;
30677;SDS011;17437;47.188;8.896;2023-02-15T06:46:51;88.25;;;26.68;;
30677;SDS011;17437;47.188;8.896;2023-02-15T06:49:23;46.37;;;23.02;;
30677;SDS011;17437;47.188;8.896;2023-02-15T06:51:54;101.07;;;30.30;;
30677;SDS011;17437;47.188;8.896;2023-02-15T06:54:26;81.28;;;26.52;;
30677;SDS011;17437;47.188;8.896;2023-02-15T06:56:57;70.55;;;29.27;;
30677;SDS011;17437;47.188;8.896;2023-02-15T06:59:29;105.07;;;31.30;;
30677;SDS011;17437;47.188;8.896;2023-02-15T07:02:00;65.67;;;28.87;;
30677;SDS011;17437;47.188;8.896;2023-02-15T07:04:32;151.82;;;35.95;;
30677;SDS011;17437;47.188;8.896;2023-02-15T07:07:07;155.12;;;37.90;;
30677;SDS011;17437;47.188;8.896;2023-02-15T07:09:39;105.97;;;36.58;;
30677;SDS011;17437;47.188;8.896;2023-02-15T07:12:10;67.37;;;30.70;;
30677;SDS011;17437;47.188;8.896;2023-02-15T07:15:00;59.67;;;30.23;;
30677;SDS011;17437;47.188;8.896;2023-02-15T07:17:36;51.30;;;26.95;;
30677;SDS011;17437;47.188;8.896;2023-02-15T07:20:09;58.70;;;28.45;;
30677;SDS011;17437;47.188;8.896;2023-02-15T07:22:43;88.58;;;29.77;;
30677;SDS011;17437;47.188;8.896;2023-02-15T07:25:14;47.55;;;24.98;;
30677;SDS011;17437;47.188;8.896;2023-02-15T07:27:47;45.17;;;24.37;;
30677;SDS011;17437;47.188;8.896;2023-02-15T07:30:20;51.23;;;26.68;;
30677;SDS011;17437;47.188;8.896;2023-02-15T07:32:55;74.55;;;27.13;;
30677;SDS011;17437;47.188;8.896;2023-02-15T07:38:42;47.33;;;27.07;;
30677;SDS011;17437;47.188;8.896;2023-02-15T07:41:16;44.90;;;26.30;;
30677;SDS011;17437;47.188;8.896;2023-02-15T07:43:47;36.15;;;20.70;;
30677;SDS011;17437;47.188;8.896;2023-02-15T07:46:19;38.67;;;23.85;;
30677;SDS011;17437;47.188;8.896;2023-02-15T07:48:51;51.42;;;27.55;;
30677;SDS011;17437;47.188;8.896;2023-02-15T07:51:22;46.68;;;22.67;;
30677;SDS011;17437;47.188;8.896;2023-02-15T07:53:54;71.45;;;23.20;;
30677;SDS011;17437;47.188;8.896;2023-02-15T07:56:25;37.75;;;21.17;;
30677;SDS011;17437;47.188;8.896;2023-02-15T07:58:57;125.40;;;28.35;;
30677;SDS011;17437;47.188;8.896;2023-02-15T08:01:31;62.85;;;26.75;;
30677;SDS011;17437;47.188;8.896;2023-02-15T08:04:05;45.73;;;23.57;;
30677;SDS011;17437;47.188;8.896;2023-02-15T08:06:40;55.23;;;24.23;;
30677;SDS011;17437;47.188;8.896;2023-02-15T08:09:11;29.42;;;19.80;;
30677;SDS011;17437;47.188;8.896;2023-02-15T08:11:43;84.37;;;24.20;;
30677;SDS011;17437;47.188;8.896;2023-02-15T08:14:15;74.07;;;25.20;;
30677;SDS011;17437;47.188;8.896;2023-02-15T08:16:48;50.48;;;24.27;;
30677;SDS011;17437;47.188;8.896;2023-02-15T08:19:21;35.45;;;21.17;;
30677;SDS011;17437;47.188;8.896;2023-02-15T08:21:54;44.30;;;20.05;;
30677;SDS011;17437;47.188;8.896;2023-02-15T08:24:28;42.88;;;22.13;;
30677;SDS011;17437;47.188;8.896;2023-02-15T08:27:01;39.40;;;21.85;;
30677;SDS011;17437;47.188;8.896;2023-02-15T08:29:35;27.17;;;18.25;;
30677;SDS011;17437;47.188;8.896;2023-02-15T08:32:09;38.13;;;22.62;;
30677;SDS011;17437;47.188;8.896;2023-02-15T08:34:41;48.73;;;28.95;;
30677;SDS011;17437;47.188;8.896;2023-02-15T08:37:13;49.03;;;27.85;;
30677;SDS011;17437;47.188;8.896;2023-02-15T08:39:44;38.23;;;23.05;;
30677;SDS011;17437;47.188;8.896;2023-02-15T08:42:16;39.48;;;22.67;;
30677;SDS011;17437;47.188;8.896;2023-02-15T08:44:49;37.28;;;21.17;;
30677;SDS011;17437;47.188;8.896;2023-02-15T08:47:21;39.48;;;22.00;;
30677;SDS011;17437;47.188;8.896;2023-02-15T08:49:52;33.30;;;21.40;;
30677;SDS011;17437;47.188;8.896;2023-02-15T08:52:25;58.98;;;21.37;;
30677;SDS011;17437;47.188;8.896;2023-02-15T08:54:56;75.03;;;24.15;;
30677;SDS011;17437;47.188;8.896;2023-02-15T08:57:28;45.28;;;22.75;;
30677;SDS011;17437;47.188;8.896;2023-02-15T08:59:59;49.00;;;22.65;;
30677;SDS011;17437;47.188;8.896;2023-02-15T09:02:32;32.98;;;20.12;;
30677;SDS011;17437;47.188;8.896;2023-02-15T09:07:43;31.70;;;18.20;;
30677;SDS011;17437;47.188;8.896;2023-02-15T09:10:15;31.00;;;18.77;;
30677;SDS011;17437;47.188;8.896;2023-02-15T09:12:46;42.40;;;20.70;;
30677;SDS011;17437;47.188;8.896;2023-02-15T09:15:19;43.45;;;22.73;;
30677;SDS011;17437;47.188;8.896;2023-02-15T09:17:52;34.03;;;21.15;;
30677;SDS011;17437;47.188;8.896;2023-02-15T09:20:24;27.25;;;17.12;;
30677;SDS011;17437;47.188;8.896;2023-02-15T09:22:56;35.95;;;20.62;;
30677;SDS011;17437;47.188;8.896;2023-02-15T09:25:28;29.27;;;18.60;;
30677;SDS011;17437;47.188;8.896;2023-02-15T09:28:00;24.87;;;17.20;;
30677;SDS011;17437;47.188;8.896;2023-02-15T09:30:31;38.13;;;22.82;;
30677;SDS011;17437;47.188;8.896;2023-02-15T09:33:03;29.27;;;19.05;;
30677;SDS011;17437;47.188;8.896;2023-02-15T09:35:35;35.03;;;21.60;;
30677;SDS011;17437;47.188;8.896;2023-02-15T09:38:06;40.83;;;23.90;;
30677;SDS011;17437;47.188;8.896;2023-02-15T09:40:39;37.85;;;23.07;;
30677;SDS011;17437;47.188;8.896;2023-02-15T09:43:16;51.23;;;23.62;;
30677;SDS011;17437;47.188;8.896;2023-02-15T09:46:02;43.70;;;23.50;;
30677;SDS011;17437;47.188;8.896;2023-02-15T09:48:45;35.75;;;19.75;;
30677;SDS011;17437;47.188;8.896;2023-02-15T09:54:32;36.03;;;19.05;;
30677;SDS011;17437;47.188;8.896;2023-02-15T09:57:13;29.07;;;18.70;;
30677;SDS011;17437;47.188;8.896;2023-02-15T09:59:49;33.85;;;20.70;;
30677;SDS011;17437;47.188;8.896;2023-02-15T10:02:27;28.60;;;18.02;;
30677;SDS011;17437;47.188;8.896;2023-02-15T10:05:05;36.83;;;20.02;;
30677;SDS011;17437;47.188;8.896;2023-02-15T10:07:46;39.42;;;19.98;;
30677;SDS011;17437;47.188;8.896;2023-02-15T10:10:24;27.52;;;17.77;;
30677;SDS011;17437;47.188;8.896;2023-02-15T10:13:02;29.57;;;17.35;;
30677;SDS011;17437;47.188;8.896;2023-02-15T10:15:41;30.57;;;18.20;;
30677;SDS011;17437;47.188;8.896;2023-02-15T10:18:29;37.05;;;22.22;;
30677;SDS011;17437;47.188;8.896;2023-02-15T10:21:07;33.90;;;19.92;;
30677;SDS011;17437;47.188;8.896;2023-02-15T10:26:42;31.75;;;18.17;;
30677;SDS011;17437;47.188;8.896;2023-02-15T10:29:18;27.25;;;18.02;;
30677;SDS011;17437;47.188;8.896;2023-02-15T10:31:54;30.48;;;19.70;;
30677;SDS011;17437;47.188;8.896;2023-02-15T10:34:30;29.40;;;18.70;;
30677;SDS011;17437;47.188;8.896;2023-02-15T10:37:16;32.50;;;18.42;;
30677;SDS011;17437;47.188;8.896;2023-02-15T10:39:52;36.00;;;21.93;;
30677;SDS011;17437;47.188;8.896;2023-02-15T10:42:30;29.95;;;20.10;;
30677;SDS011;17437;47.188;8.896;2023-02-15T10:45:12;31.57;;;18.92;;
30677;SDS011;17437;47.188;8.896;2023-02-15T10:47:51;31.27;;;19.57;;
30677;SDS011;17437;47.188;8.896;2023-02-15T10:50:32;35.83;;;19.80;;
30677;SDS011;17437;47.188;8.896;2023-02-15T10:53:17;28.87;;;18.52;;
30677;SDS011;17437;47.188;8.896;2023-02-15T10:56:13;29.65;;;18.65;;
30677;SDS011;17437;47.188;8.896;2023-02-15T10:59:03;26.02;;;18.55;;
30677;SDS011;17437;47.188;8.896;2023-02-15T11:01:41;29.00;;;19.42;;
30677;SDS011;17437;47.188;8.896;2023-02-15T11:04:28;29.02;;;19.48;;
30677;SDS011;17437;47.188;8.896;2023-02-15T11:09:49;28.65;;;16.77;;
30677;SDS011;17437;47.188;8.896;2023-02-15T11:12:24;29.42;;;18.37;;
30677;SDS011;17437;47.188;8.896;2023-02-15T11:14:58;31.25;;;18.87;;
30677;SDS011;17437;47.188;8.896;2023-02-15T11:17:35;30.55;;;17.00;;
30677;SDS011;17437;47.188;8.896;2023-02-15T11:20:11;25.08;;;17.02;;
30677;SDS011;17437;47.188;8.896;2023-02-15T11:22:47;27.15;;;19.67;;
30677;SDS011;17437;47.188;8.896;2023-02-15T11:25:23;26.05;;;16.50;;
30677;SDS011;17437;47.188;8.896;2023-02-15T11:27:57;25.82;;;17.50;;
30677;SDS011;17437;47.188;8.896;2023-02-15T11:30:36;24.77;;;18.32;;
30677;SDS011;17437;47.188;8.896;2023-02-15T11:33:12;25.08;;;15.72;;
30677;SDS011;17437;47.188;8.896;2023-02-15T11:35:48;28.98;;;17.90;;
30677;SDS011;17437;47.188;8.896;2023-02-15T11:38:21;26.65;;;17.60;;
30677;SDS011;17437;47.188;8.896;2023-02-15T11:40:55;25.32;;;16.77;;
30677;SDS011;17437;47.188;8.896;2023-02-15T11:43:31;22.13;;;15.30;;
30677;SDS011;17437;47.188;8.896;2023-02-15T11:46:05;22.27;;;14.90;;
30677;SDS011;17437;47.188;8.896;2023-02-15T11:48:39;25.92;;;15.53;;
30677;SDS011;17437;47.188;8.896;2023-02-15T11:51:12;25.32;;;15.50;;
30677;SDS011;17437;47.188;8.896;2023-02-15T11:53:47;20.72;;;13.60;;
30677;SDS011;17437;47.188;8.896;2023-02-15T11:56:20;23.90;;;16.30;;
30677;SDS011;17437;47.188;8.896;2023-02-15T11:58:55;24.27;;;15.90;;
30677;SDS011;17437;47.188;8.896;2023-02-15T12:01:30;25.27;;;16.57;;
30677;SDS011;17437;47.188;8.896;2023-02-15T12:04:04;24.55;;;15.55;;
30677;SDS011;17437;47.188;8.896;2023-02-15T12:06:41;34.30;;;19.70;;
30677;SDS011;17437;47.188;8.896;2023-02-15T12:09:16;25.20;;;17.82;;
30677;SDS011;17437;47.188;8.896;2023-02-15T12:11:50;30.40;;;18.80;;
30677;SDS011;17437;47.188;8.896;2023-02-15T12:14:21;26.25;;;16.37;;
30677;SDS011;17437;47.188;8.896;2023-02-15T12:16:53;25.72;;;16.77;;
30677;SDS011;17437;47.188;8.896;2023-02-15T12:19:29;31.50;;;16.70;;
30677;SDS011;17437;47.188;8.896;2023-02-15T12:22:04;27.67;;;18.02;;
30677;SDS011;17437;47.188;8.896;2023-02-15T12:24:43;23.18;;;16.37;;
30677;SDS011;17437;47.188;8.896;2023-02-15T12:27:15;31.73;;;18.95;;
30677;SDS011;17437;47.188;8.896;2023-02-15T12:29:51;34.10;;;19.70;;
30677;SDS011;17437;47.188;8.896;2023-02-15T12:32:26;27.65;;;18.15;;
30677;SDS011;17437;47.188;8.896;2023-02-15T12:35:01;26.15;;;17.20;;
30677;SDS011;17437;47.188;8.896;2023-02-15T12:37:35;24.77;;;17.77;;
30677;SDS011;17437;47.188;8.896;2023-02-15T12:40:19;26.55;;;17.45;;
30677;SDS011;17437;47.188;8.896;2023-02-15T12:42:52;33.15;;;19.62;;
30677;SDS011;17437;47.188;8.896;2023-02-15T12:45:25;30.52;;;20.50;;
30677;SDS011;17437;47.188;8.896;2023-02-15T12:48:09;30.50;;;19.25;;
30677;SDS011;17437;47.188;8.896;2023-02-15T12:50:46;28.38;;;18.45;;
30677;SDS011;17437;47.188;8.896;2023-02-15T12:53:20;30.97;;;19.62;;
30677;SDS011;17437;47.188;8.896;2023-02-15T12:55:54;29.92;;;18.67;;
30677;SDS011;17437;47.188;8.896;2023-02-15T12:58:27;27.50;;;20.30;;
30677;SDS011;17437;47.188;8.896;2023-02-15T13:01:09;26.95;;;17.90;;
30677;SDS011;17437;47.188;8.896;2023-02-15T13:03:52;30.50;;;18.25;;
30677;SDS011;17437;47.188;8.896;2023-02-15T13:06:30;27.90;;;18.23;;
30677;SDS011;17437;47.188;8.896;2023-02-15T13:09:06;25.60;;;17.95;;
30677;SDS011;17437;47.188;8.896;2023-02-15T13:11:39;31.25;;;21.15;;
30677;SDS011;17437;47.188;8.896;2023-02-15T13:14:17;38.53;;;19.77;;
30677;SDS011;17437;47.188;8.896;2023-02-15T13:16:51;28.57;;;18.07;;
30677;SDS011;17437;47.188;8.896;2023-02-15T13:19:29;26.27;;;17.37;;
30677;SDS011;17437;47.188;8.896;2023-02-15T13:22:02;25.68;;;16.95;;
30677;SDS011;17437;47.188;8.896;2023-02-15T13:24:35;23.55;;;15.95;;
30677;SDS011;17437;47.188;8.896;2023-02-15T13:27:10;24.23;;;17.42;;
30677;SDS011;17437;47.188;8.896;2023-02-15T13:29:44;26.42;;;18.10;;
30677;SDS011;17437;47.188;8.896;2023-02-15T13:32:24;27.45;;;21.37;;
30677;SDS011;17437;47.188;8.896;2023-02-15T13:34:58;22.85;;;16.42;;
30677;SDS011;17437;47.188;8.896;2023-02-15T13:37:43;28.67;;;19.05;;
30677;SDS011;17437;47.188;8.896;2023-02-15T13:40:21;24.52;;;17.73;;
30677;SDS011;17437;47.188;8.896;2023-02-15T13:42:55;26.87;;;18.77;;
30677;SDS011;17437;47.188;8.896;2023-02-15T13:45:32;25.40;;;17.57;;
30677;SDS011;17437;47.188;8.896;2023-02-15T13:48:12;31.07;;;21.25;;
30677;SDS011;17437;47.188;8.896;2023-02-15T13:50:54;28.12;;;18.95;;
30677;SDS011;17437;47.188;8.896;2023-02-15T13:53:33;24.55;;;17.50;;
30677;SDS011;17437;47.188;8.896;2023-02-15T13:56:33;27.30;;;19.67;;
30677;SDS011;17437;47.188;8.896;2023-02-15T13:59:24;26.95;;;18.15;;
30677;SDS011;17437;47.188;8.896;2023-02-15T14:02:06;33.78;;;22.30;;
30677;SDS011;17437;47.188;8.896;2023-02-15T14:04:52;28.85;;;19.70;;
30677;SDS011;17437;47.188;8.896;2023-02-15T14:07:38;25.92;;;17.45;;
30677;SDS011;17437;47.188;8.896;2023-02-15T14:10:20;28.90;;;17.50;;
30677;SDS011;17437;47.188;8.896;2023-02-15T14:16:08;25.70;;;18.02;;
30677;SDS011;17437;47.188;8.896;2023-02-15T14:18:42;29.35;;;19.85;;
30677;SDS011;17437;47.188;8.896;2023-02-15T14:21:17;31.00;;;20.25;;
30677;SDS011;17437;47.188;8.896;2023-02-15T14:23:55;28.10;;;19.80;;
30677;SDS011;17437;47.188;8.896;2023-02-15T14:26:32;29.57;;;19.35;;
30677;SDS011;17437;47.188;8.896;2023-02-15T14:29:10;25.08;;;17.00;;
30677;SDS011;17437;47.188;8.896;2023-02-15T14:31:45;25.05;;;17.48;;
30677;SDS011;17437;47.188;8.896;2023-02-15T14:34:22;27.10;;;19.23;;
30677;SDS011;17437;47.188;8.896;2023-02-15T14:36:55;25.23;;;17.48;;
30677;SDS011;17437;47.188;8.896;2023-02-15T14:39:31;23.10;;;15.48;;
30677;SDS011;17437;47.188;8.896;2023-02-15T14:42:23;25.77;;;19.98;;
30677;SDS011;17437;47.188;8.896;2023-02-15T14:44:57;23.05;;;15.13;;
30677;SDS011;17437;47.188;8.896;2023-02-15T14:47:33;23.10;;;16.17;;
30677;SDS011;17437;47.188;8.896;2023-02-15T14:53:33;23.75;;;16.65;;
30677;SDS011;17437;47.188;8.896;2023-02-15T14:56:18;27.60;;;18.02;;
30677;SDS011;17437;47.188;8.896;2023-02-15T14:58:56;27.55;;;17.07;;
30677;SDS011;17437;47.188;8.896;2023-02-15T15:01:52;28.83;;;17.90;;
30677;SDS011;17437;47.188;8.896;2023-02-15T15:04:29;25.55;;;17.52;;
30677;SDS011;17437;47.188;8.896;2023-02-15T15:07:08;28.80;;;20.65;;
30677;SDS011;17437;47.188;8.896;2023-02-15T15:09:40;29.70;;;18.55;;
30677;SDS011;17437;47.188;8.896;2023-02-15T15:12:14;29.18;;;18.20;;
30677;SDS011;17437;47.188;8.896;2023-02-15T15:15:05;30.65;;;17.32;;
30677;SDS011;17437;47.188;8.896;2023-02-15T15:17:52;28.67;;;18.30;;
30677;SDS011;17437;47.188;8.896;2023-02-15T15:20:42;27.20;;;17.82;;
30677;SDS011;17437;47.188;8.896;2023-02-15T15:26:24;27.90;;;19.60;;
30677;SDS011;17437;47.188;8.896;2023-02-15T15:29:02;26.60;;;18.30;;
30677;SDS011;17437;47.188;8.896;2023-02-15T15:31:43;30.90;;;19.67;;
30677;SDS011;17437;47.188;8.896;2023-02-15T15:37:29;31.15;;;18.02;;
30677;SDS011;17437;47.188;8.896;2023-02-15T15:46:41;25.43;;;17.12;;
30677;SDS011;17437;47.188;8.896;2023-02-15T15:49:33;29.48;;;18.30;;
30677;SDS011;17437;47.188;8.896;2023-02-15T15:52:11;25.70;;;17.23;;